Time;durP1;ratioP1;P1;durP2;ratioP2;P2;SDS_P1;SDS_P2;PMS_P1;PMS_P2;Temp;Humidity;BMP_temperature;BMP_pressure;BME280_temperature;BME280_humidity;BME280_pressure;Samples;Min_cycle;Max_cycle;Signal;HPM_P1;HPM_P2
2024/04/11 00:02:23;;;;;;;4.85;2.47;;;10.20;99.20;;;;;;5402771;26;20516;-68
2024/04/11 00:04:49;;;;;;;3.75;2.22;;;10.20;99.20;;;;;;5407695;26;20474;-68
2024/04/11 00:07:14;;;;;;;3.97;1.90;;;10.20;99.10;;;;;;5410902;26;20359;-67
2024/04/11 00:09:40;;;;;;;3.13;2.10;;;10.20;99.20;;;;;;5405912;26;20062;-68
2024/04/11 00:12:07;;;;;;;8.32;2.72;;;10.10;99.30;;;;;;5409919;26;20000;-68
2024/04/11 00:14:33;;;;;;;6.35;2.35;;;10.10;99.30;;;;;;5405700;26;20010;-68
2024/04/11 00:16:59;;;;;;;2.97;2.30;;;10.10;99.40;;;;;;5406938;26;19996;-68
2024/04/11 00:19:25;;;;;;;5.53;2.88;;;10.10;99.50;;;;;;5403902;26;20000;-68
2024/04/11 00:21:50;;;;;;;6.72;2.20;;;10.10;99.50;;;;;;5410693;26;20015;-68
2024/04/11 00:24:16;;;;;;;6.53;2.25;;;10.10;99.50;;;;;;5405748;26;20004;-67
2024/04/11 00:26:44;;;;;;;6.43;2.80;;;10.10;99.50;;;;;;5404581;26;20473;-68
2024/04/11 00:29:10;;;;;;;6.53;2.65;;;10.00;99.50;;;;;;5402096;26;20003;-68
2024/04/11 00:31:37;;;;;;;3.78;2.40;;;10.00;99.60;;;;;;5409527;26;20007;-68
2024/04/11 00:34:13;;;;;;;5.18;2.53;;;10.00;99.70;;;;;;5401614;26;20029;-68
2024/04/11 00:36:44;;;;;;;5.28;2.67;;;10.00;99.60;;;;;;5401375;26;20010;-68
2024/04/11 00:39:18;;;;;;;6.85;2.97;;;10.00;99.70;;;;;;5401223;26;20077;-68
2024/04/11 00:41:48;;;;;;;3.33;2.30;;;10.00;99.70;;;;;;5406678;26;19996;-68
2024/04/11 00:44:17;;;;;;;4.85;2.55;;;10.00;99.80;;;;;;5407082;26;20905;-68
2024/04/11 00:46:51;;;;;;;5.07;2.47;;;10.00;99.90;;;;;;5402629;26;19995;-69
2024/04/11 00:49:17;;;;;;;4.45;2.22;;;9.90;99.90;;;;;;5399619;26;20006;-68
2024/04/11 00:51:43;;;;;;;5.13;1.95;;;9.90;99.90;;;;;;5403494;26;20470;-68
2024/04/11 00:54:10;;;;;;;3.58;2.13;;;9.90;99.90;;;;;;5408612;26;20054;-68
2024/04/11 00:56:36;;;;;;;2.58;2.08;;;9.90;99.90;;;;;;5408075;26;20339;-68
2024/04/11 00:59:04;;;;;;;5.57;2.33;;;9.90;99.90;;;;;;5405724;26;20581;-68
2024/04/11 01:01:31;;;;;;;7.20;2.63;;;9.90;99.90;;;;;;5401510;26;20003;-68
2024/04/11 01:04:00;;;;;;;4.45;2.10;;;9.80;99.90;;;;;;5403716;26;20017;-68
2024/04/11 01:09:28;;;;;;;4.35;1.98;;;9.80;99.90;;;;;;5395024;26;20006;-68
2024/04/11 01:11:53;;;;;;;4.25;2.20;;;9.80;99.90;;;;;;5405170;26;20335;-68
2024/04/11 01:14:19;;;;;;;6.20;2.85;;;9.80;99.90;;;;;;5401836;26;20007;-68
2024/04/11 01:16:45;;;;;;;5.68;2.45;;;9.80;99.90;;;;;;5409466;26;20000;-68
2024/04/11 01:19:11;;;;;;;5.45;2.30;;;9.80;99.90;;;;;;5404807;26;20357;-68
2024/04/11 01:21:37;;;;;;;3.38;1.90;;;9.70;99.90;;;;;;5402574;26;20537;-68
2024/04/11 01:24:03;;;;;;;3.63;2.28;;;9.70;99.90;;;;;;5405160;26;20577;-68
2024/04/11 01:26:29;;;;;;;4.40;2.40;;;9.70;99.90;;;;;;5409485;26;20420;-68
2024/04/11 01:28:55;;;;;;;7.82;2.53;;;9.70;99.90;;;;;;5405127;26;20017;-68
2024/04/11 01:31:21;;;;;;;3.00;2.35;;;9.60;99.90;;;;;;5411189;26;20352;-68
2024/04/11 01:33:47;;;;;;;5.57;2.85;;;9.60;99.90;;;;;;5407984;26;20003;-66
2024/04/11 01:36:14;;;;;;;4.93;2.13;;;9.70;99.90;;;;;;5409039;26;20013;-66
2024/04/11 01:38:41;;;;;;;6.93;2.97;;;9.70;99.90;;;;;;5399708;26;20008;-66
2024/04/11 01:41:08;;;;;;;5.22;2.15;;;9.60;99.90;;;;;;5400904;26;19999;-66
2024/04/11 01:43:34;;;;;;;4.68;2.40;;;9.60;99.90;;;;;;5403741;26;20380;-66
2024/04/11 01:46:00;;;;;;;6.78;2.65;;;9.60;99.90;;;;;;5403967;26;20011;-66
2024/04/11 01:48:26;;;;;;;7.53;3.17;;;9.60;99.90;;;;;;5404881;26;19995;-66
2024/04/11 01:50:53;;;;;;;4.72;2.50;;;9.60;99.90;;;;;;5400584;26;19991;-66
2024/04/11 01:53:19;;;;;;;4.88;2.72;;;9.70;99.90;;;;;;5395915;26;20012;-66
2024/04/11 01:55:44;;;;;;;3.60;2.72;;;9.60;99.90;;;;;;5406505;26;19999;-66
2024/04/11 01:58:12;;;;;;;4.40;2.75;;;9.60;99.90;;;;;;5403490;26;20007;-66
2024/04/11 02:00:38;;;;;;;4.18;2.80;;;9.60;99.90;;;;;;5403281;26;20010;-65
2024/04/11 02:03:04;;;;;;;4.97;2.78;;;9.60;99.90;;;;;;5403043;26;20042;-66
2024/04/11 02:05:31;;;;;;;8.48;2.65;;;9.60;99.90;;;;;;5396317;26;20011;-66
2024/04/11 02:07:57;;;;;;;6.20;2.80;;;9.60;99.90;;;;;;5407775;26;20004;-66
2024/04/11 02:10:22;;;;;;;5.35;2.95;;;9.60;99.90;;;;;;5404189;26;20084;-66
2024/04/11 02:12:48;;;;;;;2.65;2.20;;;9.60;99.90;;;;;;5405946;26;20003;-66
2024/04/11 02:15:14;;;;;;;4.72;2.80;;;9.60;99.90;;;;;;5401447;26;20000;-66
2024/04/11 02:17:40;;;;;;;4.72;2.97;;;9.50;99.90;;;;;;5405009;26;20011;-66
2024/04/11 02:20:10;;;;;;;6.57;2.75;;;9.60;99.90;;;;;;5401946;26;20570;-66
2024/04/11 02:22:39;;;;;;;7.30;2.97;;;9.60;99.90;;;;;;5402233;26;20344;-66
2024/04/11 02:25:07;;;;;;;4.95;2.85;;;9.50;99.90;;;;;;5401644;26;20735;-66
2024/04/11 02:27:34;;;;;;;6.75;3.20;;;9.50;99.90;;;;;;5405964;26;20012;-66
2024/04/11 02:29:59;;;;;;;6.75;3.00;;;9.50;99.90;;;;;;5410558;26;19999;-66
2024/04/11 02:32:27;;;;;;;6.90;3.45;;;9.50;99.90;;;;;;5403888;26;20018;-66
2024/04/11 02:34:53;;;;;;;5.22;3.28;;;9.50;99.90;;;;;;5399559;26;19998;-66
2024/04/11 02:37:19;;;;;;;6.30;3.15;;;9.50;99.90;;;;;;5404398;26;20015;-66
2024/04/11 02:39:44;;;;;;;8.32;3.25;;;9.50;99.90;;;;;;5397873;26;20000;-66
2024/04/11 02:42:10;;;;;;;3.30;2.88;;;9.40;99.90;;;;;;5403925;26;20638;-66
2024/04/11 02:44:36;;;;;;;6.60;3.08;;;9.40;99.90;;;;;;5404423;26;20107;-66
2024/04/11 02:47:02;;;;;;;5.85;2.95;;;9.40;99.90;;;;;;5393535;26;20406;-67
2024/04/11 02:49:28;;;;;;;5.72;3.20;;;9.40;99.90;;;;;;5402660;26;20015;-66
2024/04/11 02:51:54;;;;;;;7.22;3.80;;;9.40;99.90;;;;;;5405675;26;20031;-66
2024/04/11 02:54:20;;;;;;;6.82;3.72;;;9.40;99.90;;;;;;5396390;26;20062;-66
2024/04/11 02:56:46;;;;;;;6.93;3.53;;;9.40;99.90;;;;;;5404811;26;20004;-67
2024/04/11 02:59:12;;;;;;;7.18;3.15;;;9.40;99.90;;;;;;5403362;26;19999;-66
2024/04/11 03:01:38;;;;;;;4.05;3.13;;;9.40;99.90;;;;;;5403326;26;20002;-66
2024/04/11 03:04:04;;;;;;;8.07;3.28;;;9.40;99.90;;;;;;5407794;26;20002;-66
2024/04/11 03:06:31;;;;;;;9.23;3.60;;;9.30;99.90;;;;;;5405246;26;20068;-66
2024/04/11 03:08:58;;;;;;;4.90;2.70;;;9.40;99.90;;;;;;5400249;26;20003;-66
2024/04/11 03:11:25;;;;;;;9.43;3.50;;;9.40;99.90;;;;;;5407558;26;20006;-66
2024/04/11 03:13:58;;;;;;;7.05;3.10;;;9.40;99.90;;;;;;5405276;26;20007;-66
2024/04/11 03:16:25;;;;;;;6.78;3.22;;;9.40;99.90;;;;;;5411577;26;20010;-66
2024/04/11 03:18:53;;;;;;;10.30;3.40;;;9.40;99.90;;;;;;5405442;26;20011;-66
2024/04/11 03:21:19;;;;;;;4.78;3.20;;;9.40;99.90;;;;;;5402797;26;20019;-66
2024/04/11 03:23:47;;;;;;;8.88;4.43;;;9.40;99.90;;;;;;5407332;26;20509;-66
2024/04/11 03:26:16;;;;;;;8.05;3.35;;;9.40;99.90;;;;;;5402535;26;20000;-66
2024/04/11 03:28:42;;;;;;;5.28;3.00;;;9.30;99.90;;;;;;5401402;26;20014;-66
2024/04/11 03:31:10;;;;;;;5.28;3.30;;;9.30;99.90;;;;;;5400189;26;20000;-66
2024/04/11 03:33:37;;;;;;;5.20;3.38;;;9.30;99.90;;;;;;5400704;26;20015;-65
2024/04/11 03:36:10;;;;;;;5.50;3.33;;;9.30;99.90;;;;;;5408732;26;20014;-65
2024/04/11 03:38:37;;;;;;;5.88;3.95;;;9.30;99.90;;;;;;5395531;26;20010;-66
2024/04/11 03:41:10;;;;;;;9.52;3.30;;;9.30;99.90;;;;;;5400846;26;20529;-66
2024/04/11 03:43:41;;;;;;;5.70;3.42;;;9.20;99.90;;;;;;5401924;26;20436;-66
2024/04/11 03:46:19;;;;;;;4.55;2.90;;;9.20;99.90;;;;;;5404383;26;20461;-66
2024/04/11 03:48:50;;;;;;;7.40;3.55;;;9.20;99.90;;;;;;5405546;26;20032;-66
2024/04/11 03:51:23;;;;;;;4.68;2.90;;;9.20;99.90;;;;;;5396847;26;19995;-66
2024/04/11 03:53:56;;;;;;;6.13;3.63;;;9.10;99.90;;;;;;5399489;26;20003;-66
2024/04/11 03:56:24;;;;;;;3.55;3.15;;;9.00;99.90;;;;;;5403264;26;20811;-66
2024/04/11 03:58:57;;;;;;;4.97;3.30;;;9.10;99.90;;;;;;5394518;26;19992;-65
2024/04/11 04:01:26;;;;;;;5.55;3.50;;;9.00;99.90;;;;;;5395843;26;20003;-66
2024/04/11 04:03:53;;;;;;;5.50;2.85;;;9.00;99.90;;;;;;5396891;26;20002;-66
2024/04/11 04:06:19;;;;;;;8.60;4.20;;;9.00;99.90;;;;;;5397837;26;19995;-66
2024/04/11 04:08:47;;;;;;;7.00;3.70;;;9.00;99.90;;;;;;5403582;26;20008;-66
2024/04/11 04:11:17;;;;;;;9.52;4.18;;;9.10;99.90;;;;;;5410750;26;20338;-66
2024/04/11 04:13:43;;;;;;;8.20;4.78;;;9.10;99.90;;;;;;5409219;26;20518;-66
2024/04/11 04:16:11;;;;;;;6.57;3.50;;;9.10;99.90;;;;;;5409835;26;20003;-66
2024/04/11 04:18:41;;;;;;;8.05;4.43;;;9.10;99.90;;;;;;5406252;26;19995;-66
2024/04/11 04:21:07;;;;;;;7.47;4.30;;;9.10;99.90;;;;;;5403627;26;19996;-66
2024/04/11 04:23:38;;;;;;;8.48;4.35;;;9.10;99.90;;;;;;5406396;26;20003;-66
2024/04/11 04:26:07;;;;;;;7.68;4.05;;;9.10;99.90;;;;;;5407219;26;20011;-66
2024/04/11 04:28:40;;;;;;;12.68;4.50;;;9.10;99.90;;;;;;5404152;26;20092;-66
2024/04/11 04:31:23;;;;;;;7.55;4.32;;;9.10;99.90;;;;;;5407177;26;19999;-66
2024/04/11 04:33:52;;;;;;;9.13;4.18;;;9.10;99.90;;;;;;5404858;26;20005;-66
2024/04/11 04:36:25;;;;;;;7.43;4.38;;;9.10;99.90;;;;;;5412250;26;20490;-66
2024/04/11 04:38:53;;;;;;;11.13;4.40;;;9.10;99.90;;;;;;5404033;26;19999;-66
2024/04/11 04:41:23;;;;;;;7.65;4.10;;;9.10;99.90;;;;;;5399258;26;20011;-66
2024/04/11 04:43:56;;;;;;;11.52;4.57;;;9.10;99.90;;;;;;5403323;26;20014;-66
2024/04/11 04:46:28;;;;;;;11.90;4.93;;;9.10;99.90;;;;;;5404898;26;20006;-66
2024/04/11 04:48:55;;;;;;;6.35;4.45;;;9.10;99.90;;;;;;5399007;26;20004;-65
2024/04/11 04:51:26;;;;;;;13.05;5.00;;;9.10;99.90;;;;;;5402870;26;20059;-66
2024/04/11 04:53:53;;;;;;;6.85;4.35;;;9.10;99.90;;;;;;5405380;26;20011;-67
2024/04/11 04:56:22;;;;;;;8.55;4.38;;;9.10;99.90;;;;;;5402420;26;20003;-66
2024/04/11 04:58:51;;;;;;;10.38;4.35;;;9.10;99.90;;;;;;5409429;26;20433;-66
2024/04/11 05:01:17;;;;;;;7.65;4.80;;;9.20;99.90;;;;;;5406286;26;20004;-66
2024/04/11 05:03:44;;;;;;;9.70;5.18;;;9.20;99.90;;;;;;5409403;26;20845;-66
2024/04/11 05:06:13;;;;;;;10.55;4.68;;;9.20;99.90;;;;;;5407620;26;20000;-66
2024/04/11 05:08:46;;;;;;;5.82;3.90;;;9.20;99.90;;;;;;5409499;26;20035;-66
2024/04/11 05:11:13;;;;;;;8.60;4.80;;;9.20;99.90;;;;;;5404413;26;20018;-65
2024/04/11 05:13:39;;;;;;;9.57;5.25;;;9.20;99.90;;;;;;5409146;26;20517;-66
2024/04/11 05:16:06;;;;;;;13.70;4.70;;;9.30;99.90;;;;;;5409410;26;20032;-66
2024/04/11 05:18:37;;;;;;;9.27;4.95;;;9.30;99.90;;;;;;5408949;26;19996;-66
2024/04/11 05:21:16;;;;;;;9.43;3.88;;;9.40;99.90;;;;;;5404079;26;19995;-66
2024/04/11 05:23:42;;;;;;;14.05;5.35;;;9.40;99.90;;;;;;5405280;26;20003;-66
2024/04/11 05:26:15;;;;;;;11.32;3.92;;;9.40;99.90;;;;;;5412209;26;20006;-66
2024/04/11 05:28:44;;;;;;;11.85;4.28;;;9.50;99.90;;;;;;5408724;26;19998;-66
2024/04/11 05:31:25;;;;;;;6.55;4.35;;;9.60;99.90;;;;;;5408290;26;20833;-66
2024/04/11 05:33:55;;;;;;;9.68;4.95;;;9.70;99.90;;;;;;5409223;26;19999;-66
2024/04/11 05:36:28;;;;;;;9.45;4.28;;;9.70;99.90;;;;;;5403748;26;20076;-66
2024/04/11 05:38:54;;;;;;;7.03;3.92;;;9.70;99.90;;;;;;5399127;26;20010;-66
2024/04/11 05:41:20;;;;;;;9.10;4.35;;;9.80;99.90;;;;;;5409035;26;20001;-66
2024/04/11 05:43:49;;;;;;;7.93;4.20;;;9.90;99.90;;;;;;5408257;26;20007;-66
2024/04/11 05:46:19;;;;;;;8.88;5.70;;;10.00;99.90;;;;;;5405535;26;20426;-66
2024/04/11 05:48:47;;;;;;;7.55;5.20;;;10.10;99.90;;;;;;5410793;26;20537;-66
2024/04/11 05:51:13;;;;;;;8.85;4.63;;;10.30;99.90;;;;;;5408451;26;20004;-66
2024/04/11 05:53:40;;;;;;;9.52;4.80;;;10.30;99.90;;;;;;5407195;26;20014;-66
2024/04/11 05:56:12;;;;;;;7.72;4.20;;;10.40;99.90;;;;;;5405806;26;20542;-66
2024/04/11 05:58:39;;;;;;;10.95;4.85;;;10.60;99.90;;;;;;5406420;26;20050;-66
2024/04/11 06:01:08;;;;;;;9.65;3.92;;;10.90;99.90;;;;;;5406373;26;19995;-66
2024/04/11 06:03:41;;;;;;;9.82;3.92;;;11.30;99.50;;;;;;5407169;26;20004;-66
2024/04/11 06:06:13;;;;;;;11.68;4.00;;;12.10;98.60;;;;;;5407351;26;20003;-66
2024/04/11 06:08:42;;;;;;;7.32;3.40;;;13.10;96.60;;;;;;5406977;26;20005;-66
2024/04/11 06:11:11;;;;;;;5.68;3.63;;;14.00;93.80;;;;;;5406865;26;20000;-66
2024/04/11 06:13:38;;;;;;;7.93;3.42;;;14.60;92.60;;;;;;5409771;26;20485;-66
2024/04/11 06:16:04;;;;;;;7.93;3.80;;;15.40;91.80;;;;;;5406234;26;20010;-66
2024/04/11 06:18:36;;;;;;;7.00;3.50;;;16.20;90.40;;;;;;5408885;26;20014;-66
2024/04/11 06:21:04;;;;;;;8.77;3.50;;;16.40;87.90;;;;;;5406920;26;19992;-66
2024/04/11 06:23:31;;;;;;;7.00;2.97;;;16.70;87.10;;;;;;5407082;26;19991;-66
2024/04/11 06:25:58;;;;;;;5.93;3.22;;;16.80;85.70;;;;;;5408450;26;20000;-66
2024/04/11 06:28:24;;;;;;;4.50;2.78;;;17.10;85.70;;;;;;5410399;26;19995;-66
2024/04/11 06:30:54;;;;;;;7.22;3.33;;;17.50;85.10;;;;;;5407836;26;20446;-66
2024/04/11 06:33:22;;;;;;;5.85;3.08;;;17.70;82.70;;;;;;5405176;26;19996;-66
2024/04/11 06:35:51;;;;;;;6.55;3.05;;;17.70;82.80;;;;;;5407674;26;19999;-66
2024/04/11 06:38:20;;;;;;;5.03;3.00;;;17.60;80.70;;;;;;5407253;26;20003;-65
2024/04/11 06:40:47;;;;;;;4.63;2.45;;;17.30;83.00;;;;;;5409828;26;19999;-66
2024/04/11 06:43:16;;;;;;;7.15;2.55;;;17.40;82.50;;;;;;5408444;26;20007;-66
2024/04/11 06:45:46;;;;;;;5.32;2.40;;;17.10;83.10;;;;;;5408649;26;20030;-66
2024/04/11 06:48:15;;;;;;;6.20;2.05;;;17.00;84.10;;;;;;5404414;26;19999;-66
2024/04/11 06:50:40;;;;;;;3.70;2.08;;;17.30;83.50;;;;;;5403687;26;19996;-66
2024/04/11 06:53:08;;;;;;;6.90;3.15;;;17.50;80.70;;;;;;5408067;26;20014;-66
2024/04/11 06:55:34;;;;;;;6.32;2.15;;;17.50;81.60;;;;;;5403981;26;20006;-66
2024/04/11 06:58:01;;;;;;;3.53;2.33;;;17.70;80.50;;;;;;5407945;26;20003;-66
2024/04/11 07:00:36;;;;;;;6.38;2.30;;;17.70;81.00;;;;;;5406662;26;20041;-65
2024/04/11 07:03:25;;;;;;;3.83;1.98;;;17.60;79.80;;;;;;5405245;26;20078;-65
2024/04/11 07:05:59;;;;;;;2.67;1.73;;;17.20;80.50;;;;;;5399997;26;20010;-66
2024/04/11 07:08:30;;;;;;;2.33;1.75;;;17.10;82.10;;;;;;5404968;26;20011;-66
2024/04/11 07:11:12;;;;;;;3.72;1.77;;;17.20;82.50;;;;;;5402568;26;19996;-66
2024/04/11 07:13:42;;;;;;;3.13;1.80;;;17.00;82.20;;;;;;5402599;26;20007;-65
2024/04/11 07:16:08;;;;;;;4.22;1.42;;;17.20;80.40;;;;;;5403391;26;20010;-65
2024/04/11 07:18:44;;;;;;;7.05;1.70;;;17.60;78.50;;;;;;5410836;26;19992;-66
2024/04/11 07:21:15;;;;;;;3.45;1.58;;;18.00;77.60;;;;;;5404076;26;19992;-66
2024/04/11 07:23:44;;;;;;;4.88;1.73;;;18.60;78.40;;;;;;5408500;26;19995;-65
2024/04/11 07:26:15;;;;;;;4.88;1.83;;;19.20;76.00;;;;;;5409617;26;20027;-65
2024/04/11 07:28:45;;;;;;;5.82;1.50;;;19.50;72.90;;;;;;5408903;26;20867;-65
2024/04/11 07:31:14;;;;;;;2.90;1.40;;;19.50;73.10;;;;;;5404513;26;19992;-64
2024/04/11 07:33:41;;;;;;;5.72;1.70;;;19.20;74.60;;;;;;5409778;26;19991;-65
2024/04/11 07:36:09;;;;;;;4.72;1.17;;;18.90;71.80;;;;;;5408743;26;20015;-64
2024/04/11 07:38:37;;;;;;;4.20;1.15;;;18.50;73.40;;;;;;5404057;26;20023;-65
2024/04/11 07:41:16;;;;;;;4.32;1.30;;;18.10;72.60;;;;;;5405570;26;19996;-65
2024/04/11 07:43:51;;;;;;;3.65;1.20;;;17.90;75.60;;;;;;5409842;26;20000;-65
2024/04/11 07:46:18;;;;;;;3.28;1.20;;;17.50;75.40;;;;;;5411537;26;19991;-66
2024/04/11 07:48:48;;;;;;;1.95;1.10;;;17.20;75.20;;;;;;5411902;26;21022;-65
2024/04/11 07:51:21;;;;;;;2.70;1.20;;;17.10;74.60;;;;;;5406302;26;20004;-66
2024/04/11 07:53:47;;;;;;;4.80;1.00;;;17.00;74.40;;;;;;5412250;26;19995;-65
2024/04/11 07:56:19;;;;;;;2.30;0.90;;;17.10;73.80;;;;;;5415611;26;20185;-65
2024/04/11 07:58:55;;;;;;;1.15;0.80;;;17.40;73.90;;;;;;5412309;26;20035;-65
2024/04/11 08:01:34;;;;;;;2.45;1.08;;;17.90;74.80;;;;;;5411932;26;19999;-64
2024/04/11 08:04:05;;;;;;;2.78;0.63;;;18.00;74.90;;;;;;5409048;26;20006;-65
2024/04/11 08:06:32;;;;;;;4.38;0.90;;;18.30;72.20;;;;;;5412845;26;20000;-64
2024/04/11 08:08:58;;;;;;;2.00;0.95;;;18.50;70.20;;;;;;5412071;26;20007;-65
2024/04/11 08:11:29;;;;;;;1.60;0.88;;;18.20;69.20;;;;;;5413318;26;20003;-65
2024/04/11 08:13:55;;;;;;;3.58;1.23;;;18.10;70.40;;;;;;5411578;26;20000;-66
2024/04/11 08:16:21;;;;;;;3.45;0.95;;;18.00;69.50;;;;;;5411465;26;20451;-65
2024/04/11 08:18:47;;;;;;;4.75;1.08;;;17.90;69.80;;;;;;5415168;26;19999;-65
2024/04/11 08:21:13;;;;;;;2.58;0.80;;;18.00;68.40;;;;;;5412412;26;20052;-65
2024/04/11 08:23:41;;;;;;;2.92;0.90;;;18.30;67.90;;;;;;5410933;26;20014;-65
2024/04/11 08:26:07;;;;;;;3.47;0.82;;;18.10;66.70;;;;;;5412453;26;20010;-65
2024/04/11 08:28:37;;;;;;;1.70;0.75;;;18.00;65.30;;;;;;5413060;26;20011;-65
2024/04/11 08:31:06;;;;;;;2.92;1.17;;;17.50;67.80;;;;;;5409412;26;20009;-65
2024/04/11 08:33:36;;;;;;;2.80;0.98;;;17.50;69.10;;;;;;5412907;26;20021;-65
2024/04/11 08:36:09;;;;;;;1.63;0.82;;;17.40;70.40;;;;;;5412856;26;20075;-65
2024/04/11 08:38:40;;;;;;;2.83;1.08;;;17.30;68.60;;;;;;5410152;26;19999;-65
2024/04/11 08:41:15;;;;;;;1.88;0.80;;;17.50;70.20;;;;;;5409812;26;20023;-65
2024/04/11 08:43:45;;;;;;;1.50;0.93;;;18.00;71.90;;;;;;5396694;26;20396;-65
2024/04/11 08:46:11;;;;;;;4.00;0.90;;;18.50;70.30;;;;;;5409489;26;20075;-65
2024/04/11 08:48:38;;;;;;;4.70;1.15;;;18.60;69.60;;;;;;5412758;26;20010;-64
2024/04/11 08:51:26;;;;;;;1.58;0.90;;;18.70;68.50;;;;;;5410644;26;20014;-65
2024/04/11 08:53:55;;;;;;;3.15;0.85;;;18.60;66.40;;;;;;5410780;26;19991;-67
2024/04/11 08:56:21;;;;;;;2.40;0.70;;;18.60;65.30;;;;;;5410962;26;20097;-67
2024/04/11 08:58:48;;;;;;;3.53;0.82;;;18.80;64.40;;;;;;5406875;26;20018;-67
2024/04/11 09:01:19;;;;;;;2.25;0.70;;;19.10;67.40;;;;;;5410547;26;20035;-68
2024/04/11 09:03:48;;;;;;;1.45;0.73;;;19.60;65.10;;;;;;5411486;26;20470;-67
2024/04/11 09:06:24;;;;;;;1.65;0.65;;;20.00;63.00;;;;;;5410728;26;20834;-67
2024/04/11 09:08:51;;;;;;;3.90;0.60;;;20.20;62.50;;;;;;5408868;26;20071;-67
2024/04/11 09:11:17;;;;;;;2.00;1.35;;;19.90;60.70;;;;;;5409757;26;19999;-68
2024/04/11 09:13:43;;;;;;;1.98;0.88;;;19.40;63.40;;;;;;5412599;26;20023;-68
2024/04/11 09:16:09;;;;;;;1.38;0.65;;;19.10;62.20;;;;;;5409114;26;20076;-67
2024/04/11 09:18:35;;;;;;;1.65;0.45;;;19.30;62.10;;;;;;5414162;26;20000;-68
2024/04/11 09:21:05;;;;;;;1.52;0.57;;;19.20;61.30;;;;;;5409006;26;19998;-68
2024/04/11 09:23:34;;;;;;;3.90;1.10;;;19.40;63.30;;;;;;5413344;26;19999;-67
2024/04/11 09:26:01;;;;;;;4.05;1.00;;;19.30;63.50;;;;;;5409772;26;20512;-68
2024/04/11 09:28:28;;;;;;;3.22;1.10;;;19.30;64.40;;;;;;5412330;26;20015;-68
2024/04/11 09:30:55;;;;;;;4.82;0.70;;;19.40;60.60;;;;;;5410866;26;20000;-67
2024/04/11 09:33:24;;;;;;;4.43;0.80;;;19.50;61.80;;;;;;5409012;26;19995;-67
2024/04/11 09:35:53;;;;;;;2.30;0.70;;;19.80;65.10;;;;;;5407968;26;19995;-67
2024/04/11 09:38:22;;;;;;;2.55;0.70;;;20.20;63.60;;;;;;5407932;26;20027;-67
2024/04/11 09:40:53;;;;;;;2.30;0.70;;;20.30;62.00;;;;;;5409520;26;20003;-67
2024/04/11 09:43:27;;;;;;;3.03;0.60;;;20.10;59.10;;;;;;5410313;26;20010;-67
2024/04/11 09:46:03;;;;;;;2.13;0.60;;;20.10;64.00;;;;;;5408224;26;20007;-68
2024/04/11 09:48:31;;;;;;;1.95;0.63;;;20.30;63.80;;;;;;5410086;26;19999;-68
2024/04/11 09:50:59;;;;;;;1.38;0.65;;;20.20;61.10;;;;;;5408537;26;20008;-67
2024/04/11 09:53:28;;;;;;;1.98;0.60;;;20.20;62.70;;;;;;5409845;26;20010;-67
2024/04/11 09:55:59;;;;;;;3.35;1.08;;;19.80;61.10;;;;;;5406688;26;19999;-68
2024/04/11 09:58:29;;;;;;;2.30;0.90;;;19.70;60.00;;;;;;5406854;26;19994;-68
2024/04/11 10:01:04;;;;;;;4.43;0.70;;;19.20;59.90;;;;;;5409468;26;20000;-68
2024/04/11 10:03:39;;;;;;;3.22;0.90;;;19.00;63.50;;;;;;5410915;26;20007;-68
2024/04/11 10:06:17;;;;;;;3.90;0.82;;;19.00;61.60;;;;;;5406362;26;20071;-67
2024/04/11 10:08:53;;;;;;;3.20;1.67;;;18.80;63.30;;;;;;5404000;26;20007;-67
2024/04/11 10:11:19;;;;;;;6.00;0.95;;;18.90;62.20;;;;;;5403622;26;19996;-68
2024/04/11 10:13:49;;;;;;;2.20;0.77;;;18.90;60.60;;;;;;5408620;26;20780;-67
2024/04/11 10:16:31;;;;;;;2.42;0.80;;;18.90;62.80;;;;;;5411738;26;20010;-67
2024/04/11 10:19:04;;;;;;;5.18;0.68;;;18.80;61.20;;;;;;5412748;26;20026;-67
2024/04/11 10:21:38;;;;;;;3.17;0.98;;;18.80;62.60;;;;;;5410213;26;20463;-68
2024/04/11 10:24:23;;;;;;;2.47;0.60;;;19.00;63.60;;;;;;5407391;26;20110;-71
2024/04/11 10:26:50;;;;;;;2.83;0.80;;;19.00;62.30;;;;;;5402977;26;19995;-68
2024/04/11 10:29:20;;;;;;;2.67;0.80;;;18.80;63.10;;;;;;5409194;26;19998;-67
2024/04/11 10:31:55;;;;;;;5.82;0.70;;;18.80;64.40;;;;;;5408589;26;20018;-68
2024/04/11 10:34:37;;;;;;;1.48;0.75;;;19.10;66.60;;;;;;5409389;26;19991;-67
2024/04/11 10:37:04;;;;;;;1.55;0.70;;;19.10;61.70;;;;;;5407241;26;20010;-68
2024/04/11 10:39:35;;;;;;;2.20;0.77;;;19.20;62.40;;;;;;5405330;26;20020;-67
2024/04/11 10:42:07;;;;;;;3.13;0.60;;;19.30;63.00;;;;;;5406637;26;20153;-68
2024/04/11 10:44:34;;;;;;;5.28;0.63;;;19.30;61.10;;;;;;5402341;26;20000;-68
2024/04/11 10:47:07;;;;;;;1.35;0.68;;;19.40;61.10;;;;;;5410637;26;19991;-68
2024/04/11 10:49:45;;;;;;;2.75;1.00;;;19.00;60.40;;;;;;5400609;26;19996;-68
2024/04/11 10:52:11;;;;;;;2.47;0.88;;;18.80;61.20;;;;;;5407046;26;20009;-68
2024/04/11 10:54:42;;;;;;;1.65;0.75;;;18.90;62.60;;;;;;5409953;26;20051;-67
2024/04/11 10:57:12;;;;;;;2.95;1.05;;;19.10;64.70;;;;;;5409401;26;20034;-68
2024/04/11 10:59:53;;;;;;;2.42;0.90;;;19.10;62.30;;;;;;5410859;26;20010;-68
2024/04/11 11:02:25;;;;;;;5.55;0.70;;;18.80;60.70;;;;;;5404698;26;19999;-67
2024/04/11 11:04:54;;;;;;;1.90;0.85;;;18.40;62.80;;;;;;5411544;26;20038;-68
2024/04/11 11:07:29;;;;;;;3.67;0.93;;;18.50;62.40;;;;;;5407459;26;20843;-69
2024/04/11 11:09:57;;;;;;;3.00;1.10;;;18.50;62.90;;;;;;5410291;26;19995;-68
2024/04/11 11:12:24;;;;;;;2.33;0.90;;;18.60;62.50;;;;;;5408997;26;19995;-68
2024/04/11 11:14:53;;;;;;;3.60;0.80;;;18.50;62.00;;;;;;5411304;26;19999;-68
2024/04/11 11:17:20;;;;;;;2.45;0.80;;;18.40;62.60;;;;;;5405361;26;20003;-68
2024/04/11 11:19:51;;;;;;;4.60;0.90;;;18.20;62.30;;;;;;5409566;26;19999;-68
2024/04/11 11:22:29;;;;;;;4.57;0.85;;;18.20;64.40;;;;;;5408175;26;20006;-67
2024/04/11 11:25:00;;;;;;;6.47;2.50;;;18.30;64.40;;;;;;5407503;26;20006;-68
2024/04/11 11:27:31;;;;;;;5.47;1.98;;;18.30;64.20;;;;;;5404485;26;20000;-67
2024/04/11 11:29:58;;;;;;;7.72;3.83;;;18.40;63.80;;;;;;5410041;26;20000;-68
2024/04/11 11:32:25;;;;;;;3.78;2.05;;;18.40;62.30;;;;;;5410959;26;20004;-67
2024/04/11 11:34:52;;;;;;;5.18;1.98;;;18.50;62.30;;;;;;5409784;26;20343;-68
2024/04/11 11:37:21;;;;;;;2.90;0.98;;;18.50;61.90;;;;;;5407301;26;20000;-67
2024/04/11 11:39:55;;;;;;;1.38;1.00;;;18.40;62.60;;;;;;5405096;26;20669;-67
2024/04/11 11:42:26;;;;;;;4.60;0.93;;;18.40;64.70;;;;;;5405308;26;19996;-68
2024/04/11 11:47:35;;;;;;;3.45;0.90;;;18.50;64.90;;;;;;5406673;26;20063;-68
2024/04/11 11:50:17;;;;;;;1.50;0.73;;;18.50;65.60;;;;;;5407359;26;20032;-68
2024/04/11 11:52:45;;;;;;;3.40;1.30;;;18.50;63.60;;;;;;5410491;26;20003;-68
2024/04/11 11:55:16;;;;;;;1.88;0.70;;;18.20;63.10;;;;;;5407885;26;19995;-68
2024/04/11 11:57:43;;;;;;;0.75;0.70;;;18.20;65.80;;;;;;5410339;26;20525;-68
2024/04/11 12:00:21;;;;;;;1.48;0.65;;;18.20;64.70;;;;;;5407451;26;20355;-68
2024/04/11 12:02:54;;;;;;;2.47;0.63;;;18.30;65.40;;;;;;5409505;26;20051;-68
2024/04/11 12:05:25;;;;;;;2.45;0.73;;;18.40;64.20;;;;;;5402226;26;20047;-68
2024/04/11 12:07:52;;;;;;;3.67;1.05;;;18.40;66.20;;;;;;5409136;26;20043;-67
2024/04/11 12:10:20;;;;;;;1.23;0.68;;;18.40;66.10;;;;;;5400803;26;20080;-70
2024/04/11 12:12:48;;;;;;;1.27;0.80;;;18.50;65.40;;;;;;5408166;26;20000;-68
2024/04/11 12:15:14;;;;;;;1.73;0.52;;;18.70;66.40;;;;;;5407382;26;20000;-68
2024/04/11 12:17:40;;;;;;;0.57;0.52;;;18.70;64.80;;;;;;5407215;26;19995;-67
2024/04/11 12:20:07;;;;;;;1.35;0.73;;;18.70;64.90;;;;;;5403353;26;20010;-68
2024/04/11 12:22:35;;;;;;;2.25;0.80;;;18.70;65.00;;;;;;5407576;26;20018;-68
2024/04/11 12:25:02;;;;;;;5.22;1.20;;;18.80;63.00;;;;;;5407757;26;20073;-68
2024/04/11 12:27:28;;;;;;;4.15;1.00;;;18.90;64.10;;;;;;5406008;26;20088;-68
2024/04/11 12:30:01;;;;;;;4.45;0.80;;;19.10;63.40;;;;;;5405824;26;20009;-68
2024/04/11 12:32:30;;;;;;;4.22;0.90;;;19.20;64.30;;;;;;5405619;26;19996;-68
2024/04/11 12:34:55;;;;;;;1.88;0.70;;;19.20;64.10;;;;;;5410038;26;20392;-68
2024/04/11 12:37:24;;;;;;;1.88;0.88;;;19.30;63.40;;;;;;5406802;26;20000;-68
2024/04/11 12:39:54;;;;;;;6.18;2.88;;;19.50;65.20;;;;;;5406677;26;20005;-67
2024/04/11 12:42:22;;;;;;;2.72;1.15;;;19.60;64.60;;;;;;5401669;26;20361;-68
2024/04/11 12:44:48;;;;;;;2.35;0.80;;;19.60;63.90;;;;;;5406322;26;20006;-68
2024/04/11 12:47:14;;;;;;;1.42;0.75;;;19.60;65.50;;;;;;5408020;26;20075;-68
2024/04/11 12:49:47;;;;;;;2.83;0.70;;;19.60;64.20;;;;;;5412088;26;19999;-68
2024/04/11 12:52:23;;;;;;;3.88;0.90;;;19.60;65.30;;;;;;5406709;26;19992;-68
2024/04/11 12:54:52;;;;;;;1.38;0.77;;;19.50;63.20;;;;;;5409176;26;20000;-68
2024/04/11 12:57:18;;;;;;;3.10;0.60;;;19.40;63.60;;;;;;5408050;26;20017;-68
2024/04/11 12:59:46;;;;;;;4.97;0.90;;;19.40;64.00;;;;;;5406253;26;20014;-67
2024/04/11 13:02:19;;;;;;;2.75;0.60;;;19.40;64.70;;;;;;5409774;26;20007;-68
2024/04/11 13:04:54;;;;;;;2.17;0.68;;;19.40;65.10;;;;;;5405994;26;20000;-67
2024/04/11 13:07:22;;;;;;;1.50;0.50;;;19.50;66.20;;;;;;5403388;26;19991;-67